Pagrindinis puslapis
METAR-TAF:

METAR-TAF

Oro uostai :

Trat, Tailandas

platuma: 12-16-28N, ilguma: 102-19-08E, Aukštis: 32 m

Dabartinis oras

Ataskaita buvo paskelbta 59 minutes, ne 08:00 UTC
Vėjas 10 kt iš Šiaurės Rytų
Temperatūra 34°C
Drėgmė 32%
Slėgis 1010 hPa
Matomumas: 7000 m
Mažai debesys ne aukštis 2000 ft

METAR: VTBO 170800Z 04010KT 7000 FEW020 34/15 Q1010

Laikas: 15:59 (08:59 UTC)

Prognozė

Ataskaita buvo paskelbta 3 valandos ir 59 minutes, ne 05:00 UTC
Prognozė galioja nuo 17 metu 06 UTC su 18 metu 06 UTC
Vėjas 10 kt iš Šiaurės Rytų
Matomumas 10 km arba daugiau
Mažai debesys ne aukštis 3000 ft

TAF: VTBO 170500Z 1706/1806 04010KT 9999 FEW030

Orai ataskaitas ir orų prognozės (METAR, TAF).

turimą stotys yra geltonos ir raudonos taškus žemėlapyje.

Perkelti pele per norėdami pamatyti stoties vardą.

Tada spustelėkite, norėdami matyti oro stebėjimo ir prognozės.

Norėdami pakeisti žemėlapį: spustelėkite ant žalios mygtukų su juodo kryžiaus žemyn,; žalią mygtuką su brūkšneliu, jei norite nutolinti; arba žalių rodyklių gretimoms žemėlapius.


METAR-TAF: